Resums METAR propers

 

LIBV - Gioia Del Colle, Italy
Distància des de l'estació: SSE 15km
Actualització: 20/07/2019 14:55
NO actualitzat
Alguns núvols
Alguns núvols
 Vent del NNE
Vent: NNE 7 km/h
Temperatura: 30°C
Rosada: 11°C
Humitat: 31%
Baròmetre: 1018 hPa
Nuvolositat: Alguns núvols
Visibilitat: 10 km
Detalls nuvolositat: Alguns núvols 1219 m
2019/07/20 12:55 LIBV 201255Z 03004KT 9999 FEW040 30/11 Q1018 RMK SCT SCT070 VIS MIN 9999 WIND THR32 VRB03KT WIND THR14 27004KT BLU
LIBD - Bari/Palese Macc, Italy
Distància des de l'estació: NNO 26km
Actualització: 20/07/2019 15:50
Seré
Seré
 Vent del ENE
Vent: ENE 13 km/h
Temperatura: 28°C
Temp. xafogor: 29°C
Rosada: 19°C
Humitat: 58%
Baròmetre: 1018 hPa
Resum: Seré
Visibilitat: major de 10 km
2019/07/20 13:50 LIBD 201350Z 07007KT CAVOK 28/19 Q1018
 
LIBH - Marina Di Ginosa, Italy
Distància des de l'estació: S 53km
Actualització: 20/07/2019 14:55
NO actualitzat
Seré
Seré
 Vent del S
Vent: S 11 km/h
Temperatura: 32°C
Temp. xafogor: 34°C
Rosada: 19°C
Humitat: 46%
Baròmetre: 1017 hPa
Resum: Seré
Visibilitat: major de 10 km
2019/07/20 12:55 LIBH 201255Z 18006KT CAVOK 32/19 Q1017 RMK SKC QUK 2 QUL 1 S VIS MAR 25 KM VIS MIN 9999
LIBG - Grottaglie(Civ/A, Italy
Distància des de l'estació: SE 61km
Actualització: 20/07/2019 15:50
Alguns núvols
Alguns núvols
 Vent del SO
Vent: SO 13 km/h
Temperatura: 32°C
Rosada: 14°C
Humitat: 33%
Baròmetre: 1017 hPa
Nuvolositat: Alguns núvols
Visibilitat: 10 km
Detalls nuvolositat: Alguns núvols 1219 m
2019/07/20 13:50 LIBG 201350Z 22007KT 180V260 9999 FEW040 32/14 Q1017
 
LIBR - Brindisi/Casale, Italy
Distància des de l'estació: ESE 96km
Actualització: 20/07/2019 15:50
Seré
Seré
 Vent del NNE
Vent: NNE 15 km/h
Temperatura: 27°C
Temp. xafogor: 29°C
Rosada: 20°C
Humitat: 66%
Baròmetre: 1018 hPa
Resum: Seré
Visibilitat: major de 10 km
2019/07/20 13:50 LIBR 201350Z 02008KT CAVOK 27/20 Q1018
LIBA - Amendola (it-Afb, Italy
Distància des de l'estació: NO 118km
Actualització: 20/07/2019 15:55
Alguns núvols
Alguns núvols
 Vent del E
Vent: E 17 km/h
Temperatura: 30°C
Rosada: 12°C
Humitat: 33%
Baròmetre: 1017 hPa
Nuvolositat: Alguns núvols
Visibilitat: 10 km
Detalls nuvolositat: Alguns núvols 1219 m
2019/07/20 13:55 LIBA 201355Z 09009KT 9999 FEW040 30/12 Q1017 RMK FEW VIS MIN 9999 WIND THR11 08011KT WIND THR29 /////KT BLU
 
LIBF - Foggia/Gino Lisa, Italy
Distància des de l'estació: ONO 126km
Actualització: 20/07/2019 15:50
Seré
Seré
 Vent del ENE
Vent: ENE 20 km/h
Temperatura: 33°C
Rosada: 12°C
Humitat: 28%
Baròmetre: 1017 hPa
Resum: Seré
Visibilitat: major de 10 km
2019/07/20 13:50 LIBF 201350Z 07011KT 050V120 CAVOK 33/12 Q1017
LIBN - Lecce (it-Afb), Italy
Distància des de l'estació: SE 132km
Actualització: 20/07/2019 15:55
Alguns núvols
Alguns núvols
 Vent del N
Vent: N 9 km/h
Temperatura: 29°C
Temp. xafogor: 29°C
Rosada: 16°C
Humitat: 45%
Baròmetre: 1018 hPa
Nuvolositat: Alguns núvols
Visibilitat: 10 km
Detalls nuvolositat: Alguns núvols 1067 m
2019/07/20 13:55 LIBN 201355Z 01005KT 9999 FEW035 29/16 Q1018 RMK FEW VIS MIN 9999 WIND THR14 36008KT WIND THR32 35006KT BLU